Time;durP1;ratioP1;P1;durP2;ratioP2;P2;SDS_P1;SDS_P2;PMS_P1;PMS_P2;Temp;Humidity;BMP_temperature;BMP_pressure;BME280_temperature;BME280_humidity;BME280_pressure;Samples;Min_cycle;Max_cycle;Signal;HPM_P1;HPM_P2
2022/10/05 00:00:54;;;;;;;6.10;5.50;;;13.40;99.90;;;;;;5029017;28;20520;-37
2022/10/05 00:03:21;;;;;;;7.03;5.10;;;13.50;99.90;;;;;;5028315;28;20405;-37
2022/10/05 00:05:48;;;;;;;7.20;5.57;;;13.40;99.90;;;;;;4991773;28;1087722;-38
2022/10/05 00:08:21;;;;;;;6.23;5.63;;;13.50;99.90;;;;;;5029431;28;20182;-37
2022/10/05 00:10:47;;;;;;;8.10;5.47;;;13.40;99.90;;;;;;5030053;28;20445;-37
2022/10/05 00:13:25;;;;;;;11.80;5.63;;;13.40;99.90;;;;;;5030929;28;20911;-38
2022/10/05 00:16:09;;;;;;;6.90;5.10;;;13.40;99.90;;;;;;5033878;28;20851;-37
2022/10/05 00:18:35;;;;;;;5.70;5.10;;;13.40;99.90;;;;;;5033344;28;20484;-37
2022/10/05 00:21:01;;;;;;;6.10;5.50;;;13.30;99.90;;;;;;5033777;28;20409;-37
2022/10/05 00:23:31;;;;;;;5.83;5.27;;;13.30;99.90;;;;;;5032949;28;20456;-37
2022/10/05 00:26:12;;;;;;;6.07;5.50;;;13.30;99.90;;;;;;5033794;28;20194;-38
2022/10/05 00:28:39;;;;;;;6.60;5.20;;;13.40;99.90;;;;;;5033579;28;20830;-37
2022/10/05 00:31:14;;;;;;;7.03;5.30;;;13.40;99.90;;;;;;5033356;28;20417;-38
2022/10/05 00:33:39;;;;;;;6.10;5.50;;;13.40;99.90;;;;;;5032984;28;20433;-37
2022/10/05 00:36:06;;;;;;;7.90;5.90;;;13.40;99.90;;;;;;5032049;28;20467;-38
2022/10/05 00:38:32;;;;;;;8.10;5.70;;;13.50;99.90;;;;;;5033481;28;20210;-37
2022/10/05 00:41:05;;;;;;;7.87;5.77;;;13.60;99.90;;;;;;5033322;28;20460;-37
2022/10/05 00:44:02;;;;;;;8.53;5.53;;;13.60;99.90;;;;;;5032350;28;20190;-37
2022/10/05 00:46:54;;;;;;;6.77;5.07;;;13.60;99.90;;;;;;5033235;28;20425;-37
2022/10/05 00:49:51;;;;;;;6.07;5.30;;;13.60;99.90;;;;;;5033143;28;20417;-38
2022/10/05 00:52:40;;;;;;;8.53;6.40;;;13.60;99.90;;;;;;5031795;28;20427;-38
2022/10/05 00:55:31;;;;;;;8.67;5.67;;;13.60;99.90;;;;;;5032940;28;20506;-37
2022/10/05 00:58:11;;;;;;;7.67;5.63;;;13.60;99.90;;;;;;5032753;28;21193;-37
2022/10/05 01:01:06;;;;;;;7.90;5.57;;;13.60;99.90;;;;;;5033384;28;20768;-38
2022/10/05 01:04:05;;;;;;;6.60;5.90;;;13.60;99.90;;;;;;5031819;28;20421;-37
2022/10/05 01:06:35;;;;;;;6.50;5.50;;;13.60;99.90;;;;;;5031433;28;20493;-37
2022/10/05 01:09:25;;;;;;;6.13;5.40;;;13.60;99.90;;;;;;5032854;28;20416;-37
2022/10/05 01:11:56;;;;;;;6.07;5.47;;;13.60;99.90;;;;;;5032725;28;20900;-37
2022/10/05 01:14:31;;;;;;;6.00;5.30;;;13.60;99.90;;;;;;5032028;28;20416;-38
2022/10/05 01:17:18;;;;;;;7.70;5.30;;;13.60;99.90;;;;;;5032377;28;20417;-38
2022/10/05 01:19:56;;;;;;;6.83;5.60;;;13.60;99.90;;;;;;5035660;28;20444;-37
2022/10/05 01:22:40;;;;;;;7.27;5.83;;;13.60;99.90;;;;;;5034551;28;20484;-38
2022/10/05 01:25:25;;;;;;;9.23;5.70;;;13.60;99.90;;;;;;5032137;28;20516;-37
2022/10/05 01:28:05;;;;;;;5.90;5.30;;;13.60;99.90;;;;;;5032515;28;20907;-38
2022/10/05 01:30:38;;;;;;;5.87;5.30;;;13.60;99.90;;;;;;5032485;28;20428;-37
2022/10/05 01:33:17;;;;;;;12.73;6.73;;;13.60;99.90;;;;;;5031821;28;20767;-37
2022/10/05 01:36:15;;;;;;;7.70;6.40;;;13.60;99.90;;;;;;5032201;28;20459;-38
2022/10/05 01:38:43;;;;;;;7.57;6.07;;;13.60;99.90;;;;;;5027146;28;20590;-38
2022/10/05 01:41:52;;;;;;;8.00;6.77;;;13.60;99.90;;;;;;5024092;28;20943;-37
2022/10/05 01:44:29;;;;;;;6.90;5.93;;;13.70;99.90;;;;;;5028773;28;20428;-37
2022/10/05 01:47:02;;;;;;;7.57;5.97;;;13.60;99.90;;;;;;5019127;28;20445;-38
2022/10/05 01:49:47;;;;;;;7.37;5.80;;;13.70;99.90;;;;;;5032032;28;20416;-38
2022/10/05 01:52:30;;;;;;;7.17;5.67;;;13.70;99.90;;;;;;5031851;28;20417;-37
2022/10/05 01:55:05;;;;;;;6.73;5.80;;;13.70;99.90;;;;;;5031416;28;20468;-37
2022/10/05 01:58:06;;;;;;;7.90;6.13;;;13.70;99.90;;;;;;5030510;28;20419;-37
2022/10/05 02:00:44;;;;;;;8.73;6.90;;;13.70;99.90;;;;;;5031938;28;20428;-37
2022/10/05 02:03:18;;;;;;;10.13;6.13;;;13.60;99.90;;;;;;5029995;28;20432;-38
2022/10/05 02:05:51;;;;;;;6.73;6.00;;;13.70;99.90;;;;;;5031780;28;20437;-37
2022/10/05 02:08:26;;;;;;;6.73;6.00;;;13.70;99.90;;;;;;5031704;28;20424;-37
2022/10/05 02:11:06;;;;;;;9.30;6.53;;;13.70;99.90;;;;;;5031865;28;20417;-37
2022/10/05 02:13:44;;;;;;;5.83;5.23;;;13.70;99.90;;;;;;5030962;28;20425;-37
2022/10/05 02:16:15;;;;;;;6.50;5.90;;;13.60;99.90;;;;;;5031701;28;20520;-37
2022/10/05 02:18:57;;;;;;;7.53;6.77;;;13.60;99.90;;;;;;5031359;28;20512;-37
2022/10/05 02:21:23;;;;;;;7.70;6.77;;;13.60;99.90;;;;;;5037960;28;20512;-37
2022/10/05 02:23:53;;;;;;;8.77;5.43;;;13.60;99.90;;;;;;5029219;28;20417;-37
2022/10/05 02:26:20;;;;;;;6.97;6.23;;;13.60;99.90;;;;;;5030690;28;20505;-37
2022/10/05 02:28:56;;;;;;;9.17;6.80;;;13.60;99.90;;;;;;5031254;28;20780;-37
2022/10/05 02:31:33;;;;;;;7.70;6.80;;;13.70;99.90;;;;;;5031401;28;20781;-38
2022/10/05 02:34:24;;;;;;;9.13;6.60;;;13.60;99.90;;;;;;5030344;28;20427;-38
2022/10/05 02:37:15;;;;;;;7.93;6.27;;;13.70;99.90;;;;;;5030326;28;20504;-37
2022/10/05 02:39:52;;;;;;;7.70;6.00;;;13.70;99.90;;;;;;5030968;28;20420;-37
2022/10/05 02:42:23;;;;;;;6.57;5.93;;;13.70;99.90;;;;;;5030856;28;20467;-38
2022/10/05 02:45:16;;;;;;;8.57;6.43;;;13.70;99.90;;;;;;5030516;28;20471;-37
2022/10/05 02:48:09;;;;;;;7.57;6.00;;;13.70;99.90;;;;;;5030771;28;20772;-38
2022/10/05 02:50:49;;;;;;;7.07;5.93;;;13.70;99.90;;;;;;5030847;28;20510;-37
2022/10/05 02:53:22;;;;;;;9.40;6.57;;;13.70;99.90;;;;;;5030218;28;20912;-37
2022/10/05 02:56:13;;;;;;;6.63;5.93;;;13.80;99.90;;;;;;5029777;28;20515;-37
2022/10/05 02:59:10;;;;;;;8.83;6.87;;;13.80;99.90;;;;;;5030689;28;20933;-37
2022/10/05 03:01:56;;;;;;;7.43;6.30;;;13.80;99.90;;;;;;5029906;28;20424;-37
2022/10/05 03:04:33;;;;;;;7.70;6.50;;;13.80;99.90;;;;;;5029798;28;20967;-37
2022/10/05 03:07:01;;;;;;;6.70;5.90;;;13.80;99.90;;;;;;5030633;28;20423;-38
2022/10/05 03:09:35;;;;;;;7.30;6.60;;;13.80;99.90;;;;;;5030038;28;20428;-37
2022/10/05 03:12:18;;;;;;;7.77;6.00;;;13.90;99.90;;;;;;5029486;28;20507;-38
2022/10/05 03:15:02;;;;;;;8.60;7.03;;;13.80;99.90;;;;;;5029867;28;20413;-38
2022/10/05 03:17:40;;;;;;;6.47;5.80;;;13.80;99.90;;;;;;5030377;28;20417;-37
2022/10/05 03:20:15;;;;;;;9.63;6.57;;;13.80;99.90;;;;;;5036168;28;20957;-38
2022/10/05 03:22:47;;;;;;;7.50;6.70;;;13.80;99.90;;;;;;5029705;28;20430;-37
2022/10/05 03:25:18;;;;;;;6.53;5.93;;;13.90;99.90;;;;;;5029012;28;20592;-37
2022/10/05 03:28:05;;;;;;;8.03;6.30;;;13.80;99.90;;;;;;5030360;28;20424;-37
2022/10/05 03:30:56;;;;;;;10.97;7.30;;;13.80;99.90;;;;;;5030123;28;20479;-37
2022/10/05 03:34:05;;;;;;;10.90;6.83;;;13.90;99.90;;;;;;5019097;28;20505;-39
2022/10/05 03:36:48;;;;;;;6.57;5.97;;;13.90;99.90;;;;;;5026811;28;20531;-37
2022/10/05 03:39:18;;;;;;;6.43;5.80;;;13.90;99.90;;;;;;5027521;28;20936;-38
2022/10/05 03:41:53;;;;;;;7.10;6.40;;;13.90;99.90;;;;;;5019752;28;20438;-38
2022/10/05 03:44:38;;;;;;;11.63;6.50;;;13.90;99.90;;;;;;5028335;28;20415;-38
2022/10/05 03:47:13;;;;;;;9.10;6.93;;;13.90;99.90;;;;;;5029546;28;20416;-37
2022/10/05 03:49:51;;;;;;;9.73;7.20;;;13.90;99.90;;;;;;5029946;28;20419;-37
2022/10/05 03:52:41;;;;;;;9.17;7.27;;;14.00;99.90;;;;;;5029888;28;20406;-38
2022/10/05 03:55:31;;;;;;;7.60;6.63;;;14.00;99.90;;;;;;5028773;28;20569;-38
2022/10/05 03:58:02;;;;;;;8.30;6.30;;;13.90;99.90;;;;;;5029913;28;20449;-37
2022/10/05 04:00:30;;;;;;;8.57;6.97;;;14.00;99.90;;;;;;5029908;28;20428;-37
2022/10/05 04:03:09;;;;;;;7.40;6.43;;;13.90;99.90;;;;;;5029205;28;20432;-38
2022/10/05 04:06:22;;;;;;;7.40;6.20;;;14.00;99.90;;;;;;5029580;28;20476;-37
2022/10/05 04:08:59;;;;;;;10.93;6.13;;;14.00;99.90;;;;;;5029487;28;20514;-37
2022/10/05 04:11:36;;;;;;;9.70;5.93;;;14.00;99.90;;;;;;5029851;28;20772;-37
2022/10/05 04:14:08;;;;;;;6.53;5.93;;;14.00;99.90;;;;;;5028931;28;20409;-37
2022/10/05 04:16:56;;;;;;;7.10;6.40;;;14.00;99.90;;;;;;5029793;28;20510;-37
2022/10/05 04:19:51;;;;;;;6.00;5.40;;;13.90;99.90;;;;;;5028345;28;21117;-38
2022/10/05 04:22:23;;;;;;;8.87;6.33;;;13.90;99.90;;;;;;5013246;28;20441;-37
2022/10/05 04:25:00;;;;;;;7.10;6.03;;;13.90;99.90;;;;;;5029524;28;20822;-37
2022/10/05 04:27:33;;;;;;;8.37;6.60;;;13.90;99.90;;;;;;5029564;28;20444;-37
2022/10/05 04:30:11;;;;;;;8.67;6.30;;;13.90;99.90;;;;;;5029733;28;20414;-37
2022/10/05 04:32:56;;;;;;;6.00;5.40;;;13.90;99.90;;;;;;5029076;28;20416;-38
2022/10/05 04:35:30;;;;;;;7.80;6.37;;;13.90;99.90;;;;;;5029628;28;20555;-37
2022/10/05 04:38:17;;;;;;;6.60;5.90;;;13.90;99.90;;;;;;5029413;28;20417;-37
2022/10/05 04:41:20;;;;;;;7.53;5.90;;;13.90;99.90;;;;;;5029675;28;20419;-37
2022/10/05 04:44:04;;;;;;;8.60;7.10;;;13.90;99.90;;;;;;5028780;28;21034;-38
2022/10/05 04:46:32;;;;;;;7.47;6.13;;;13.90;99.90;;;;;;5029567;28;20413;-37
2022/10/05 04:49:33;;;;;;;7.30;6.60;;;13.90;99.90;;;;;;5029421;28;20405;-37
2022/10/05 04:52:23;;;;;;;7.93;5.50;;;13.90;99.90;;;;;;5029373;28;20431;-38
2022/10/05 04:55:03;;;;;;;9.07;6.53;;;13.90;99.90;;;;;;5019020;28;20719;-38
2022/10/05 04:58:01;;;;;;;6.97;6.27;;;13.90;99.90;;;;;;5028858;28;20471;-37
2022/10/05 05:00:53;;;;;;;7.70;6.30;;;13.90;99.90;;;;;;5031897;28;20425;-37
2022/10/05 05:03:44;;;;;;;9.80;7.30;;;13.90;99.90;;;;;;5030894;28;20424;-38
2022/10/05 05:06:52;;;;;;;6.87;6.17;;;13.90;99.90;;;;;;5031209;28;20528;-37
2022/10/05 05:09:54;;;;;;;6.83;6.13;;;14.00;99.90;;;;;;4993792;28;20456;-38
2022/10/05 05:12:28;;;;;;;6.83;6.00;;;14.00;99.90;;;;;;5027912;28;20427;-37
2022/10/05 05:15:15;;;;;;;6.87;6.17;;;14.00;99.90;;;;;;5032344;28;20840;-37
2022/10/05 05:18:14;;;;;;;6.83;5.60;;;14.00;99.90;;;;;;5032647;28;20500;-37
2022/10/05 05:20:55;;;;;;;6.80;6.07;;;14.00;99.90;;;;;;5038959;28;20969;-37
2022/10/05 05:23:29;;;;;;;6.70;5.90;;;14.00;99.90;;;;;;5031895;28;20456;-38
2022/10/05 05:25:55;;;;;;;8.13;6.37;;;14.00;99.90;;;;;;5032623;28;20463;-37
2022/10/05 05:28:36;;;;;;;7.27;6.10;;;14.00;99.90;;;;;;5032365;28;20987;-37
2022/10/05 05:31:18;;;;;;;7.07;6.37;;;14.00;99.90;;;;;;5032347;28;20210;-37
2022/10/05 05:34:23;;;;;;;10.13;6.83;;;14.00;99.90;;;;;;5031598;28;20467;-37
2022/10/05 05:36:59;;;;;;;7.03;6.10;;;14.00;99.90;;;;;;5018669;28;20475;-37
2022/10/05 05:39:32;;;;;;;7.27;6.23;;;14.00;99.90;;;;;;5032024;28;20415;-37
2022/10/05 05:42:05;;;;;;;8.90;6.90;;;14.00;99.90;;;;;;5032450;28;20776;-37
2022/10/05 05:45:07;;;;;;;7.63;6.10;;;14.00;99.90;;;;;;5031877;28;20432;-37
2022/10/05 05:47:36;;;;;;;6.57;5.90;;;14.10;99.90;;;;;;5048206;28;20512;-37
2022/10/05 05:50:09;;;;;;;9.00;6.50;;;14.10;99.90;;;;;;5051718;28;20428;-38
2022/10/05 05:52:41;;;;;;;7.63;6.00;;;14.00;99.90;;;;;;5027703;28;20426;-37
2022/10/05 05:55:19;;;;;;;7.40;6.10;;;14.00;99.90;;;;;;5026211;28;20457;-37
2022/10/05 05:57:57;;;;;;;7.73;6.93;;;14.00;99.90;;;;;;5027890;28;20421;-38
2022/10/05 06:00:27;;;;;;;6.90;6.10;;;14.00;99.90;;;;;;5033178;28;20811;-37
2022/10/05 06:03:10;;;;;;;6.87;6.17;;;14.00;99.90;;;;;;5048925;28;20412;-37
2022/10/05 06:05:48;;;;;;;8.63;6.37;;;14.00;99.90;;;;;;5034344;28;20938;-37
2022/10/05 06:08:23;;;;;;;7.00;5.60;;;14.00;99.90;;;;;;5031905;28;20520;-38
2022/10/05 06:10:54;;;;;;;7.50;5.83;;;14.10;99.90;;;;;;5029122;28;20432;-37
2022/10/05 06:13:36;;;;;;;5.70;5.20;;;14.10;99.90;;;;;;5030036;28;20495;-37
2022/10/05 06:16:13;;;;;;;9.10;5.77;;;14.10;99.90;;;;;;5030861;28;20493;-37
2022/10/05 06:18:46;;;;;;;5.67;5.10;;;14.10;99.90;;;;;;5031046;28;20804;-37
2022/10/05 06:21:27;;;;;;;6.70;5.53;;;14.10;99.90;;;;;;5037214;28;20417;-38
2022/10/05 06:24:04;;;;;;;6.27;5.50;;;14.20;99.90;;;;;;5030615;28;20827;-37
2022/10/05 06:27:10;;;;;;;6.33;4.60;;;14.20;99.90;;;;;;5031356;28;20425;-38
2022/10/05 06:30:01;;;;;;;5.50;5.00;;;14.20;99.90;;;;;;5031227;28;20802;-37
2022/10/05 06:32:52;;;;;;;8.10;5.60;;;14.30;99.90;;;;;;5031146;28;20932;-38
2022/10/05 06:35:59;;;;;;;5.63;5.10;;;14.30;99.90;;;;;;5031327;28;20465;-37
2022/10/05 06:38:46;;;;;;;6.00;5.50;;;14.30;99.90;;;;;;5030721;28;20784;-37
2022/10/05 06:41:20;;;;;;;6.47;5.20;;;14.40;99.90;;;;;;5030945;28;20497;-37
2022/10/05 06:43:59;;;;;;;5.23;4.73;;;14.40;99.90;;;;;;5031449;28;20421;-38
2022/10/05 06:46:34;;;;;;;7.60;6.37;;;14.40;99.90;;;;;;5030852;28;20418;-37
2022/10/05 06:49:08;;;;;;;5.30;4.67;;;14.40;99.90;;;;;;5030786;28;20424;-38
2022/10/05 06:51:54;;;;;;;6.90;5.00;;;14.50;99.90;;;;;;5031110;28;20508;-38
2022/10/05 06:54:26;;;;;;;6.77;4.80;;;14.50;99.90;;;;;;5028001;28;20444;-37
2022/10/05 06:57:14;;;;;;;5.87;5.00;;;14.50;99.90;;;;;;5028858;28;20944;-37
2022/10/05 06:59:40;;;;;;;4.80;4.37;;;14.50;99.90;;;;;;5030901;28;20413;-38
2022/10/05 07:02:29;;;;;;;6.20;5.40;;;14.50;99.90;;;;;;5030405;28;20409;-38
2022/10/05 07:05:30;;;;;;;4.97;4.10;;;14.50;99.90;;;;;;5028873;28;20202;-37
2022/10/05 07:08:04;;;;;;;5.87;5.13;;;14.50;99.90;;;;;;5031281;28;20416;-38
2022/10/05 07:11:07;;;;;;;5.90;4.97;;;14.50;99.90;;;;;;5028966;28;20416;-38
2022/10/05 07:13:57;;;;;;;5.40;4.60;;;14.60;99.90;;;;;;5006975;28;20476;-37
2022/10/05 07:16:44;;;;;;;5.67;5.07;;;14.60;99.90;;;;;;5026418;28;20500;-37
2022/10/05 07:19:31;;;;;;;5.50;4.90;;;14.60;99.90;;;;;;5029822;28;20420;-38
2022/10/05 07:21:57;;;;;;;14.70;4.60;;;14.70;99.90;;;;;;5025540;28;20471;-37
2022/10/05 07:24:22;;;;;;;4.57;4.17;;;14.70;99.90;;;;;;5030015;28;20425;-37
2022/10/05 07:27:02;;;;;;;5.23;4.50;;;14.80;99.90;;;;;;5032178;28;20190;-37
2022/10/05 07:29:51;;;;;;;4.90;4.33;;;14.80;99.90;;;;;;5050212;28;20606;-37
2022/10/05 07:32:38;;;;;;;5.90;4.30;;;14.80;99.90;;;;;;5050242;28;20503;-38
2022/10/05 07:38:46;;;;;;;7.50;4.50;;;14.90;99.90;;;;;;5049702;28;20411;-37
2022/10/05 07:41:21;;;;;;;6.27;4.93;;;14.90;99.90;;;;;;5049719;28;21265;-37
2022/10/05 07:43:53;;;;;;;8.40;4.47;;;14.90;99.90;;;;;;5049456;28;20416;-38
2022/10/05 07:46:47;;;;;;;4.90;4.30;;;14.90;99.90;;;;;;5050245;28;20944;-37
2022/10/05 07:49:39;;;;;;;4.50;4.00;;;14.90;99.90;;;;;;5050090;28;20424;-37
2022/10/05 07:52:13;;;;;;;5.77;4.03;;;15.00;99.90;;;;;;5050027;28;20759;-37
2022/10/05 07:55:01;;;;;;;7.03;4.17;;;15.00;99.90;;;;;;5047703;28;20958;-38
2022/10/05 07:57:42;;;;;;;6.83;3.77;;;15.00;99.90;;;;;;5025825;28;20436;-38
2022/10/05 08:00:22;;;;;;;4.40;4.00;;;15.00;99.90;;;;;;5029933;28;20413;-37
2022/10/05 08:02:53;;;;;;;4.00;3.60;;;14.90;99.90;;;;;;5029292;28;20413;-38
2022/10/05 08:05:27;;;;;;;4.63;4.07;;;14.90;99.90;;;;;;5023630;28;20443;-37
2022/10/05 08:08:24;;;;;;;4.90;4.40;;;15.00;99.90;;;;;;5027676;28;20436;-37
2022/10/05 08:11:08;;;;;;;4.37;3.97;;;15.00;99.90;;;;;;5019467;28;20805;-37
2022/10/05 08:14:15;;;;;;;5.10;3.67;;;15.00;99.90;;;;;;5029027;28;20799;-38
2022/10/05 08:16:45;;;;;;;4.87;4.10;;;15.00;99.90;;;;;;5026790;28;20472;-38
2022/10/05 08:19:38;;;;;;;4.57;4.17;;;15.10;99.90;;;;;;5017315;28;20428;-37
2022/10/05 08:22:09;;;;;;;4.33;3.50;;;15.20;99.90;;;;;;5024224;28;20426;-37
2022/10/05 08:24:44;;;;;;;6.23;3.70;;;15.20;99.90;;;;;;5027928;28;20432;-37
2022/10/05 08:27:23;;;;;;;4.80;3.80;;;15.20;99.90;;;;;;5029628;28;20462;-37
2022/10/05 08:29:57;;;;;;;5.20;4.03;;;15.30;99.90;;;;;;5029512;28;20419;-37
2022/10/05 08:32:43;;;;;;;3.80;3.50;;;15.30;99.90;;;;;;5029266;28;20503;-37
2022/10/05 08:35:35;;;;;;;6.83;4.00;;;15.30;99.90;;;;;;5032572;28;20545;-37
2022/10/05 08:38:11;;;;;;;3.83;3.40;;;15.30;99.90;;;;;;5033557;28;21076;-38
2022/10/05 08:40:45;;;;;;;6.33;4.50;;;15.40;99.90;;;;;;5032294;28;20423;-37
2022/10/05 08:43:35;;;;;;;4.73;3.60;;;15.40;99.90;;;;;;5032867;28;20411;-37
2022/10/05 08:46:26;;;;;;;4.40;3.40;;;15.40;99.90;;;;;;5033289;28;20417;-37
2022/10/05 08:49:16;;;;;;;4.83;4.10;;;15.40;99.90;;;;;;5033121;28;20498;-37
2022/10/05 08:52:15;;;;;;;9.00;3.17;;;15.40;99.90;;;;;;5033344;28;20514;-38
2022/10/05 08:55:11;;;;;;;3.60;3.30;;;15.50;99.90;;;;;;5031151;28;20507;-37
2022/10/05 08:58:02;;;;;;;4.97;3.97;;;15.50;99.90;;;;;;5030720;28;20427;-37
2022/10/05 09:00:58;;;;;;;4.77;3.80;;;15.50;99.90;;;;;;5033226;28;20413;-37
2022/10/05 09:03:42;;;;;;;4.63;3.73;;;15.60;99.90;;;;;;5032482;28;20410;-37
2022/10/05 09:06:45;;;;;;;3.50;3.20;;;15.60;99.90;;;;;;5032773;28;20467;-37
2022/10/05 09:09:19;;;;;;;3.70;3.40;;;15.60;99.90;;;;;;5032909;28;20507;-37
2022/10/05 09:12:09;;;;;;;3.77;3.47;;;15.70;99.90;;;;;;5032856;28;21258;-37
2022/10/05 09:15:06;;;;;;;3.53;3.23;;;15.80;99.90;;;;;;5031545;28;20425;-38
2022/10/05 09:18:09;;;;;;;3.80;3.50;;;15.80;99.90;;;;;;5032677;28;20939;-38
2022/10/05 09:20:53;;;;;;;3.57;3.27;;;15.80;99.90;;;;;;5038555;28;20420;-37
2022/10/05 09:23:48;;;;;;;4.13;3.27;;;15.80;99.90;;;;;;5031882;28;20436;-37
2022/10/05 09:26:39;;;;;;;3.57;3.27;;;15.90;99.90;;;;;;5032385;28;20790;-37
2022/10/05 09:29:26;;;;;;;4.73;4.33;;;15.90;99.90;;;;;;5031272;28;20422;-38
2022/10/05 09:32:26;;;;;;;4.80;4.27;;;16.00;99.90;;;;;;5032479;28;20970;-37
2022/10/05 09:35:15;;;;;;;8.90;3.70;;;16.00;99.90;;;;;;5031758;28;20413;-37
2022/10/05 09:38:14;;;;;;;4.30;3.90;;;16.00;99.90;;;;;;5020284;28;20488;-37
2022/10/05 09:41:02;;;;;;;3.40;3.10;;;16.10;99.90;;;;;;5021753;28;20508;-38
2022/10/05 09:43:56;;;;;;;3.83;3.03;;;16.10;99.90;;;;;;5031752;28;20424;-38
2022/10/05 09:46:42;;;;;;;4.83;3.80;;;16.10;99.90;;;;;;5032142;28;20432;-37
2022/10/05 09:49:33;;;;;;;4.47;4.07;;;16.20;99.90;;;;;;5032048;28;20413;-37
2022/10/05 09:52:05;;;;;;;4.43;3.63;;;16.20;99.90;;;;;;5032158;28;20429;-37
2022/10/05 09:55:05;;;;;;;4.30;3.37;;;16.30;99.90;;;;;;5029825;28;20875;-37
2022/10/05 09:57:45;;;;;;;3.90;3.43;;;16.30;99.90;;;;;;5028158;28;20807;-37
2022/10/05 10:00:23;;;;;;;3.77;3.33;;;16.30;99.90;;;;;;5032120;28;20417;-37
2022/10/05 10:03:10;;;;;;;4.70;4.30;;;16.40;99.90;;;;;;5031185;28;20424;-37
2022/10/05 10:05:54;;;;;;;3.73;3.37;;;16.40;99.90;;;;;;5031793;28;20476;-37
2022/10/05 10:08:44;;;;;;;3.87;3.60;;;16.40;99.90;;;;;;5031436;28;20432;-38
2022/10/05 10:11:31;;;;;;;5.00;3.80;;;16.50;99.90;;;;;;5031851;28;20428;-37
2022/10/05 10:14:17;;;;;;;3.97;3.60;;;16.50;99.90;;;;;;5030909;28;20417;-37
2022/10/05 10:17:18;;;;;;;4.20;3.37;;;16.50;99.90;;;;;;5031526;28;20449;-37
2022/10/05 10:20:01;;;;;;;4.40;3.20;;;16.50;99.90;;;;;;5033847;28;20423;-37
2022/10/05 10:22:56;;;;;;;4.40;3.40;;;16.60;99.90;;;;;;5030303;28;20861;-38
2022/10/05 10:25:46;;;;;;;3.70;3.17;;;16.50;99.90;;;;;;5031093;28;20425;-38
2022/10/05 10:28:18;;;;;;;3.40;3.10;;;16.50;99.90;;;;;;5031424;28;20529;-38
2022/10/05 10:30:58;;;;;;;3.80;3.50;;;16.60;99.90;;;;;;5031388;28;20421;-38
2022/10/05 10:34:06;;;;;;;4.00;2.90;;;16.60;99.90;;;;;;5030588;28;20413;-38
2022/10/05 10:37:01;;;;;;;3.20;2.90;;;16.60;99.90;;;;;;5031198;28;20526;-37
2022/10/05 10:39:36;;;;;;;3.73;3.10;;;16.70;99.90;;;;;;5030952;28;20409;-38
2022/10/05 10:42:30;;;;;;;4.17;3.10;;;16.60;99.90;;;;;;5031237;28;20424;-38
2022/10/05 10:44:59;;;;;;;5.90;3.17;;;16.70;99.90;;;;;;5030724;28;20417;-37
2022/10/05 10:47:51;;;;;;;7.13;3.40;;;16.70;99.90;;;;;;5031173;28;20475;-37
2022/10/05 10:50:38;;;;;;;3.07;2.87;;;16.70;99.90;;;;;;5030983;28;21070;-38
2022/10/05 10:53:17;;;;;;;2.90;2.60;;;16.70;99.90;;;;;;5030360;28;20520;-38
2022/10/05 10:56:37;;;;;;;3.17;2.97;;;16.80;99.90;;;;;;5028955;28;20452;-38
2022/10/05 10:59:22;;;;;;;2.93;2.60;;;16.80;99.90;;;;;;5008521;28;20422;-37
2022/10/05 11:02:19;;;;;;;3.70;3.20;;;16.80;99.90;;;;;;5020263;28;20421;-37
2022/10/05 11:05:20;;;;;;;8.43;3.10;;;16.80;99.90;;;;;;5030273;28;20439;-37
2022/10/05 11:08:04;;;;;;;6.20;2.97;;;16.90;99.90;;;;;;5030783;28;20416;-38
2022/10/05 11:11:07;;;;;;;3.50;3.20;;;16.90;99.90;;;;;;5030640;28;20930;-38
2022/10/05 11:14:01;;;;;;;3.17;2.63;;;17.00;99.90;;;;;;5029878;28;20504;-37
2022/10/05 11:16:55;;;;;;;4.10;2.87;;;17.00;99.90;;;;;;5030448;28;20455;-38
2022/10/05 11:19:49;;;;;;;4.17;3.77;;;17.10;99.90;;;;;;5030579;28;20475;-38
2022/10/05 11:22:49;;;;;;;3.50;3.20;;;17.10;99.90;;;;;;5027319;28;21128;-38
2022/10/05 11:25:52;;;;;;;4.70;3.60;;;17.10;99.90;;;;;;5029876;28;20810;-38
2022/10/05 11:28:42;;;;;;;2.60;2.40;;;17.10;99.90;;;;;;5030406;28;20421;-38
2022/10/05 11:31:32;;;;;;;3.60;3.30;;;17.20;99.90;;;;;;5030269;28;20811;-38
2022/10/05 11:34:23;;;;;;;3.83;3.00;;;17.30;99.90;;;;;;5028334;28;20425;-38
2022/10/05 11:36:58;;;;;;;4.20;3.13;;;17.60;99.90;;;;;;5030250;28;21070;-38
2022/10/05 11:39:36;;;;;;;3.80;3.30;;;17.70;99.90;;;;;;5030316;28;20416;-38
2022/10/05 11:42:17;;;;;;;3.13;2.87;;;17.90;99.90;;;;;;5029817;28;20425;-37
2022/10/05 11:44:58;;;;;;;2.93;2.63;;;18.00;99.90;;;;;;5029498;28;20424;-38
2022/10/05 11:47:29;;;;;;;3.23;2.70;;;18.20;99.90;;;;;;5030104;28;20438;-37
2022/10/05 11:50:05;;;;;;;3.80;3.50;;;18.30;99.90;;;;;;5030278;28;20483;-37
2022/10/05 11:52:56;;;;;;;3.20;2.90;;;18.30;99.90;;;;;;5029637;28;20420;-37
2022/10/05 11:55:38;;;;;;;3.60;3.13;;;18.40;99.90;;;;;;5028671;28;20457;-37
2022/10/05 11:58:22;;;;;;;3.53;3.23;;;18.50;99.90;;;;;;5028421;28;20527;-38
2022/10/05 12:01:05;;;;;;;3.43;3.13;;;18.60;99.90;;;;;;5029893;28;20467;-38
2022/10/05 12:03:33;;;;;;;3.40;3.10;;;18.70;99.90;;;;;;5029320;28;20431;-38
2022/10/05 12:06:15;;;;;;;5.07;2.60;;;18.80;99.90;;;;;;5029927;28;20552;-39
2022/10/05 12:08:46;;;;;;;2.70;2.50;;;18.90;99.90;;;;;;5032722;28;20940;-37
2022/10/05 12:11:31;;;;;;;4.27;3.40;;;19.00;99.90;;;;;;5033712;28;20425;-39
2022/10/05 12:14:06;;;;;;;2.70;2.50;;;19.10;99.90;;;;;;5033355;28;20483;-39
2022/10/05 12:17:19;;;;;;;3.20;2.90;;;19.10;99.90;;;;;;5034011;28;20459;-37
2022/10/05 12:19:49;;;;;;;3.10;2.80;;;19.20;99.90;;;;;;5033749;28;20419;-37
2022/10/05 12:22:21;;;;;;;4.23;2.83;;;19.30;99.90;;;;;;5033220;28;20491;-39
2022/10/05 12:25:04;;;;;;;3.20;2.90;;;19.20;99.90;;;;;;5021281;28;20908;-38
2022/10/05 12:27:40;;;;;;;3.10;2.83;;;19.20;99.90;;;;;;5021012;28;20428;-37
2022/10/05 12:30:27;;;;;;;3.10;2.83;;;19.30;99.90;;;;;;5033498;28;21333;-37
2022/10/05 12:33:09;;;;;;;5.30;2.77;;;19.30;99.90;;;;;;5032931;28;20420;-37
2022/10/05 12:35:48;;;;;;;2.70;2.50;;;19.30;99.90;;;;;;5033527;28;20484;-38
2022/10/05 12:38:27;;;;;;;3.10;2.53;;;19.40;99.90;;;;;;5033180;28;20417;-38
2022/10/05 12:40:52;;;;;;;3.30;2.50;;;19.50;99.90;;;;;;5035013;28;21007;-37
2022/10/05 12:43:30;;;;;;;3.10;2.60;;;19.50;99.90;;;;;;5033231;28;20497;-37
2022/10/05 12:46:05;;;;;;;2.50;2.30;;;19.40;99.90;;;;;;5032183;28;20192;-38
2022/10/05 12:48:51;;;;;;;2.93;2.70;;;19.40;99.90;;;;;;5033000;28;20424;-38
2022/10/05 12:51:31;;;;;;;2.67;2.47;;;19.50;99.90;;;;;;5035519;28;20424;-37
2022/10/05 12:54:32;;;;;;;3.40;2.53;;;19.60;99.90;;;;;;5028241;28;20424;-37
2022/10/05 12:57:14;;;;;;;2.30;2.10;;;19.60;99.90;;;;;;5031407;28;20452;-38
2022/10/05 12:59:54;;;;;;;4.50;2.57;;;19.70;99.90;;;;;;5032941;28;20915;-38
2022/10/05 13:02:34;;;;;;;3.37;2.50;;;19.80;99.90;;;;;;5032977;28;20416;-37
2022/10/05 13:05:09;;;;;;;2.90;2.30;;;19.80;99.90;;;;;;5032441;28;20440;-38
2022/10/05 13:07:44;;;;;;;2.67;2.47;;;19.90;99.90;;;;;;5034191;28;20430;-37
2022/10/05 13:10:44;;;;;;;3.60;2.70;;;20.00;99.90;;;;;;5032484;28;20753;-37
2022/10/05 13:13:16;;;;;;;6.43;2.37;;;20.10;99.90;;;;;;5023710;28;21128;-38
2022/10/05 13:16:00;;;;;;;4.23;2.30;;;20.10;99.90;;;;;;5047741;28;20462;-38
2022/10/05 13:18:37;;;;;;;2.60;2.33;;;20.10;99.90;;;;;;5030960;28;20425;-37
2022/10/05 13:21:12;;;;;;;3.50;2.90;;;20.20;99.90;;;;;;5045576;28;20460;-37
2022/10/05 13:24:05;;;;;;;2.40;2.20;;;20.10;99.90;;;;;;5032093;28;20416;-37
2022/10/05 13:26:39;;;;;;;2.97;2.50;;;20.10;99.90;;;;;;5032747;28;20451;-38
2022/10/05 13:29:32;;;;;;;3.60;2.30;;;20.20;99.90;;;;;;5047846;28;20436;-38
2022/10/05 13:32:22;;;;;;;3.10;1.73;;;20.20;99.90;;;;;;5032690;28;20417;-38
2022/10/05 13:34:52;;;;;;;3.67;2.20;;;20.30;99.90;;;;;;5031947;28;20490;-37
2022/10/05 13:37:30;;;;;;;5.93;2.47;;;20.20;99.90;;;;;;5032446;28;20598;-38
2022/10/05 13:40:17;;;;;;;2.93;2.20;;;20.20;99.90;;;;;;5032294;28;20421;-38
2022/10/05 13:43:06;;;;;;;2.60;1.93;;;20.20;99.90;;;;;;5031577;28;20435;-39
2022/10/05 13:46:15;;;;;;;1.97;1.87;;;20.30;99.90;;;;;;5032265;28;20923;-38
2022/10/05 13:49:10;;;;;;;2.90;1.60;;;20.40;99.90;;;;;;5026139;28;20456;-38
2022/10/05 13:51:53;;;;;;;2.50;2.30;;;20.40;99.90;;;;;;5028791;28;20457;-38
2022/10/05 13:54:26;;;;;;;3.37;2.33;;;20.40;99.90;;;;;;5030119;28;20471;-38
2022/10/05 13:57:09;;;;;;;2.03;1.90;;;20.40;99.90;;;;;;5031684;28;20680;-37
2022/10/05 13:59:40;;;;;;;3.20;2.07;;;20.40;99.90;;;;;;5031773;28;20471;-37
2022/10/05 14:02:11;;;;;;;2.73;2.17;;;20.40;99.90;;;;;;5032010;28;20428;-37
2022/10/05 14:04:47;;;;;;;3.60;2.00;;;20.40;99.90;;;;;;5031218;28;20437;-37
2022/10/05 14:07:35;;;;;;;2.80;2.20;;;20.50;99.90;;;;;;5031795;28;20417;-38
2022/10/05 14:10:03;;;;;;;3.00;2.17;;;20.50;99.90;;;;;;5031461;28;20425;-38